createdAt,value
2022-09-15T00:01:35.439Z,71.05
2022-09-15T00:04:05.071Z,70.79
2022-09-15T00:06:35.243Z,70.56
2022-09-15T00:09:03.917Z,70.71
2022-09-15T00:11:34.657Z,70.97
2022-09-15T00:14:05.942Z,70.86
2022-09-15T00:16:34.997Z,71.02
2022-09-15T00:19:03.920Z,71.03
2022-09-15T00:21:36.637Z,70.79
2022-09-15T00:24:05.731Z,70.82
2022-09-15T00:26:34.317Z,70.93
2022-09-15T00:29:04.168Z,70.85
2022-09-15T00:31:33.509Z,70.91
2022-09-15T00:34:04.063Z,71.10
2022-09-15T00:36:32.515Z,70.98
2022-09-15T00:39:02.508Z,71.03
2022-09-15T00:41:31.787Z,70.82
2022-09-15T00:44:02.330Z,70.90
2022-09-15T00:46:32.311Z,71.04
2022-09-15T00:49:05.470Z,71.10
2022-09-15T00:51:38.727Z,71.21
2022-09-15T00:54:12.486Z,71.16
2022-09-15T00:56:44.107Z,71.12
2022-09-15T00:59:16.780Z,71.35
2022-09-15T01:01:47.638Z,71.58
2022-09-15T01:04:17.556Z,71.70
2022-09-15T01:06:49.756Z,71.82
2022-09-15T01:09:23.963Z,71.88
2022-09-15T01:11:52.802Z,71.77
2022-09-15T01:14:21.092Z,71.99
2022-09-15T01:17:04.112Z,72.04
2022-09-15T01:20:07.879Z,72.12
2022-09-15T01:22:45.423Z,72.31
2022-09-15T01:25:28.732Z,72.19
2022-09-15T01:28:38.609Z,72.35
2022-09-15T01:31:13.459Z,72.45
2022-09-15T01:33:47.513Z,72.48
2022-09-15T01:36:22.431Z,72.57
2022-09-15T01:39:01.147Z,72.68
2022-09-15T01:41:36.371Z,72.51
2022-09-15T01:44:09.485Z,72.72
2022-09-15T01:46:47.121Z,72.74
2022-09-15T01:49:20.015Z,72.65
2022-09-15T01:51:52.753Z,72.52
2022-09-15T01:54:23.751Z,72.82
2022-09-15T01:56:52.263Z,72.79
2022-09-15T01:59:20.678Z,72.64
2022-09-15T02:01:57.578Z,72.53
2022-09-15T02:04:31.360Z,72.35
2022-09-15T02:07:02.666Z,72.78
2022-09-15T02:09:34.809Z,72.58
2022-09-15T02:12:08.064Z,72.48
2022-09-15T02:14:49.352Z,72.62
2022-09-15T02:17:22.380Z,72.54
2022-09-15T02:19:53.702Z,72.61
2022-09-15T02:22:28.011Z,72.37
2022-09-15T02:25:02.395Z,72.08
2022-09-15T02:27:37.893Z,72.55
2022-09-15T02:30:11.893Z,72.59
2022-09-15T02:32:48.259Z,72.64
2022-09-15T02:35:18.372Z,72.68
2022-09-15T02:37:47.834Z,72.50
2022-09-15T02:40:16.482Z,72.59
2022-09-15T02:42:54.633Z,72.45
2022-09-15T02:45:23.291Z,72.66
2022-09-15T02:47:53.565Z,72.51
2022-09-15T02:50:22.013Z,72.39
2022-09-15T02:52:50.355Z,72.30
2022-09-15T02:55:18.748Z,72.27
2022-09-15T02:57:47.181Z,72.25
2022-09-15T03:00:17.714Z,72.10
2022-09-15T03:02:50.100Z,72.13
2022-09-15T03:05:21.977Z,72.09
2022-09-15T03:07:50.619Z,72.13
2022-09-15T03:10:19.727Z,72.23
2022-09-15T03:12:50.080Z,71.94
2022-09-15T03:15:21.238Z,71.58
2022-09-15T03:17:50.631Z,71.73
2022-09-15T03:20:22.559Z,71.80
2022-09-15T03:22:51.379Z,71.88
2022-09-15T03:25:20.512Z,71.93
2022-09-15T03:27:49.097Z,72.00
2022-09-15T03:30:17.558Z,71.98
2022-09-15T03:32:46.117Z,71.86
2022-09-15T03:35:14.597Z,72.01
2022-09-15T03:37:44.409Z,71.84
2022-09-15T03:40:13.198Z,71.84
2022-09-15T03:42:41.827Z,72.01
2022-09-15T03:45:10.728Z,72.03
2022-09-15T03:47:39.196Z,71.94
2022-09-15T03:50:08.463Z,71.85
2022-09-15T03:52:36.939Z,71.84
2022-09-15T03:55:07.960Z,71.81
2022-09-15T03:57:36.368Z,71.83
2022-09-15T04:00:06.380Z,71.60
2022-09-15T04:02:34.869Z,71.70
2022-09-15T04:05:03.232Z,71.63
2022-09-15T04:07:31.580Z,71.50
2022-09-15T04:10:01.169Z,71.53
2022-09-15T04:12:32.355Z,71.49
2022-09-15T04:15:00.771Z,71.60
2022-09-15T04:17:29.179Z,71.50
2022-09-15T04:19:58.346Z,71.28
2022-09-15T04:22:27.953Z,71.13
2022-09-15T04:24:56.257Z,70.88
2022-09-15T04:27:25.160Z,70.72
2022-09-15T04:29:55.237Z,70.69
2022-09-15T04:32:23.607Z,70.74
2022-09-15T04:34:51.937Z,70.83
2022-09-15T04:37:20.348Z,70.83
2022-09-15T04:39:49.426Z,70.96
2022-09-15T04:42:17.906Z,71.12
2022-09-15T04:44:46.263Z,71.00
2022-09-15T04:47:16.204Z,70.80
2022-09-15T04:49:44.621Z,70.84
2022-09-15T04:52:13.496Z,70.62
2022-09-15T04:54:41.871Z,70.78
2022-09-15T04:57:10.834Z,70.75
2022-09-15T04:59:39.318Z,70.68
2022-09-15T05:02:07.824Z,70.78
2022-09-15T05:04:37.642Z,70.45
2022-09-15T05:07:06.980Z,70.34
2022-09-15T05:09:35.676Z,70.35
2022-09-15T05:12:04.129Z,70.07
2022-09-15T05:14:32.854Z,69.95
2022-09-15T05:17:01.131Z,70.01
2022-09-15T05:19:29.892Z,70.20
2022-09-15T05:21:59.732Z,70.28
2022-09-15T05:24:28.097Z,70.29
2022-09-15T05:26:56.412Z,70.07
2022-09-15T05:29:24.793Z,69.84
2022-09-15T05:31:53.281Z,69.97
2022-09-15T05:34:21.687Z,69.94
2022-09-15T05:36:50.084Z,70.11
2022-09-15T05:39:20.068Z,69.86
2022-09-15T05:41:48.471Z,69.83
2022-09-15T05:44:17.343Z,69.80
2022-09-15T05:46:45.856Z,69.60
2022-09-15T05:49:14.511Z,69.29
2022-09-15T05:51:42.973Z,69.43
2022-09-15T05:54:11.291Z,69.47
2022-09-15T05:56:41.063Z,69.00
2022-09-15T05:59:09.503Z,69.03
2022-09-15T06:01:38.236Z,69.06
2022-09-15T06:04:07.005Z,69.02
2022-09-15T06:06:35.476Z,69.04
2022-09-15T06:09:07.503Z,68.88
2022-09-15T06:11:36.056Z,69.00
2022-09-15T06:14:06.584Z,68.80
2022-09-15T06:16:36.345Z,68.92
2022-09-15T06:19:05.488Z,68.88
2022-09-15T06:21:35.120Z,68.70
2022-09-15T06:24:07.403Z,68.76
2022-09-15T06:26:36.285Z,68.95
2022-09-15T06:29:07.653Z,68.59
2022-09-15T06:31:37.560Z,68.47
2022-09-15T06:34:06.904Z,68.42
2022-09-15T06:36:35.729Z,68.53
2022-09-15T06:39:04.139Z,68.35
2022-09-15T06:41:52.900Z,68.38
2022-09-15T06:44:22.548Z,68.32
2022-09-15T06:46:51.935Z,68.08
2022-09-15T06:49:20.504Z,67.86
2022-09-15T06:51:49.233Z,67.80
2022-09-15T06:54:18.228Z,67.48
2022-09-15T06:56:46.691Z,67.17
2022-09-15T06:59:15.791Z,66.84
2022-09-15T07:01:45.906Z,66.78
2022-09-15T07:04:14.693Z,67.00
2022-09-15T07:06:43.324Z,67.32
2022-09-15T07:09:12.704Z,67.37
2022-09-15T07:11:41.104Z,67.16
2022-09-15T07:14:09.730Z,66.58
2022-09-15T07:16:38.387Z,66.91
2022-09-15T07:19:08.389Z,66.79
2022-09-15T07:21:37.488Z,66.72
2022-09-15T07:24:07.809Z,66.64
2022-09-15T07:26:36.345Z,66.78
2022-09-15T07:29:07.231Z,66.56
2022-09-15T07:31:37.576Z,66.45
2022-09-15T07:34:08.884Z,66.38
2022-09-15T07:36:37.890Z,66.65
2022-09-15T07:39:07.360Z,66.65
2022-09-15T07:41:35.953Z,66.73
2022-09-15T07:44:04.561Z,66.74
2022-09-15T07:46:34.229Z,66.84
2022-09-15T07:49:03.538Z,67.14
2022-09-15T07:51:33.467Z,67.22
2022-09-15T07:54:01.992Z,67.17
2022-09-15T07:56:30.325Z,67.44
2022-09-15T07:58:59.017Z,67.38
2022-09-15T08:01:27.611Z,67.39
2022-09-15T08:03:56.311Z,67.31
2022-09-15T08:06:26.776Z,67.34
2022-09-15T08:09:00.423Z,67.13
2022-09-15T08:11:29.916Z,67.24
2022-09-15T08:13:58.385Z,67.13
2022-09-15T08:16:27.346Z,67.17
2022-09-15T08:18:56.310Z,67.14
2022-09-15T08:21:25.161Z,67.08
2022-09-15T08:23:56.811Z,66.91
2022-09-15T08:26:27.478Z,67.01
2022-09-15T08:28:56.113Z,66.92
2022-09-15T08:31:25.326Z,66.83
2022-09-15T08:33:56.554Z,66.72
2022-09-15T08:36:27.925Z,66.84
2022-09-15T08:38:58.144Z,66.53
2022-09-15T08:41:31.057Z,65.99
2022-09-15T08:44:08.573Z,65.89
2022-09-15T08:46:40.962Z,65.25
2022-09-15T08:49:30.528Z,64.75
2022-09-15T08:52:11.841Z,64.66
2022-09-15T08:54:41.584Z,64.92
2022-09-15T08:57:15.588Z,64.63
2022-09-15T08:59:44.928Z,64.74
2022-09-15T09:02:51.462Z,64.49
2022-09-15T09:05:40.813Z,65.01
2022-09-15T09:08:45.031Z,64.86
2022-09-15T09:11:25.684Z,64.99
2022-09-15T09:14:03.803Z,64.61
2022-09-15T09:16:51.002Z,64.28
2022-09-15T09:19:56.003Z,64.05
2022-09-15T09:22:27.839Z,64.10
2022-09-15T09:24:59.488Z,63.87
2022-09-15T09:27:34.020Z,63.69
2022-09-15T09:30:05.376Z,63.68
2022-09-15T09:32:41.660Z,63.76
2022-09-15T09:35:20.152Z,64.09
2022-09-15T09:37:48.857Z,64.18
2022-09-15T09:40:18.175Z,63.89
2022-09-15T09:42:48.395Z,63.83
2022-09-15T09:45:20.529Z,63.55
2022-09-15T09:47:48.912Z,63.11
2022-09-15T09:50:35.681Z,62.58
2022-09-15T09:53:26.256Z,61.72
2022-09-15T09:55:56.168Z,62.32
2022-09-15T09:58:27.313Z,62.23
2022-09-15T10:00:55.781Z,62.32
2022-09-15T10:03:30.581Z,61.99
2022-09-15T10:06:07.111Z,61.70
2022-09-15T10:08:37.883Z,61.73
2022-09-15T10:11:11.472Z,61.33
2022-09-15T10:13:53.668Z,60.18
2022-09-15T10:16:23.843Z,61.31
2022-09-15T10:18:54.530Z,61.16
2022-09-15T10:21:25.790Z,61.15
2022-09-15T10:23:54.610Z,61.10
2022-09-15T10:26:32.241Z,61.10
2022-09-15T10:29:16.381Z,60.54
2022-09-15T10:31:46.282Z,60.84
2022-09-15T10:34:37.624Z,60.00
2022-09-15T10:37:16.688Z,60.23
2022-09-15T10:39:53.685Z,59.84
2022-09-15T10:42:35.520Z,59.72
2022-09-15T10:45:18.538Z,59.20
2022-09-15T10:48:17.869Z,59.30
2022-09-15T10:50:57.913Z,59.35
2022-09-15T10:53:44.755Z,59.31
2022-09-15T10:56:24.181Z,59.40
2022-09-15T10:59:22.435Z,59.34
2022-09-15T11:02:20.370Z,59.22
2022-09-15T11:05:10.447Z,59.65
2022-09-15T11:07:49.895Z,59.71
2022-09-15T11:10:26.828Z,59.75
2022-09-15T11:13:06.158Z,59.60
2022-09-15T11:15:53.261Z,59.53
2022-09-15T11:18:44.196Z,59.55
2022-09-15T11:21:23.923Z,59.77
2022-09-15T11:24:03.623Z,59.99
2022-09-15T11:26:36.043Z,59.81
2022-09-15T11:29:11.288Z,59.75
2022-09-15T11:31:42.502Z,59.89
2022-09-15T11:34:18.035Z,59.39
2022-09-15T11:36:53.463Z,59.35
2022-09-15T11:39:24.770Z,59.30
2022-09-15T11:41:57.673Z,58.99
2022-09-15T11:44:31.679Z,58.84
2022-09-15T11:47:09.004Z,58.56
2022-09-15T11:49:45.508Z,58.18
2022-09-15T11:52:37.481Z,56.27
2022-09-15T11:55:18.475Z,56.34
2022-09-15T11:57:53.168Z,55.97
2022-09-15T12:00:22.926Z,54.98
2022-09-15T12:03:01.015Z,54.50
2022-09-15T12:05:34.532Z,54.20
2022-09-15T12:08:08.199Z,54.59
2022-09-15T12:10:39.423Z,55.15
2022-09-15T12:13:07.863Z,55.33
2022-09-15T12:15:36.510Z,54.97
2022-09-15T12:18:34.363Z,55.34
2022-09-15T12:21:02.079Z,55.56
2022-09-15T12:23:34.830Z,55.66
2022-09-15T12:26:06.743Z,55.93
2022-09-15T12:28:40.066Z,55.95
2022-09-15T12:31:28.817Z,55.93
2022-09-15T12:33:58.286Z,56.11
2022-09-15T12:36:47.120Z,56.20
2022-09-15T12:39:27.746Z,56.41
2022-09-15T12:41:57.625Z,56.48
2022-09-15T12:44:28.602Z,56.14
2022-09-15T12:46:58.137Z,56.69
2022-09-15T12:49:30.981Z,57.27
2022-09-15T12:52:00.553Z,56.80
2022-09-15T12:54:31.113Z,56.50
2022-09-15T12:56:59.613Z,56.65
2022-09-15T12:59:29.266Z,56.89
2022-09-15T13:01:57.807Z,57.04
2022-09-15T13:04:45.622Z,57.00
2022-09-15T13:07:32.351Z,56.99
2022-09-15T13:10:17.378Z,57.32
2022-09-15T13:12:51.499Z,57.43
2022-09-15T13:15:20.557Z,57.54
2022-09-15T13:17:48.761Z,57.43
2022-09-15T13:20:19.266Z,57.27
2022-09-15T13:22:51.050Z,57.37
2022-09-15T13:25:23.778Z,57.14
2022-09-15T13:27:53.886Z,57.36
2022-09-15T13:30:31.559Z,57.22
2022-09-15T13:33:03.131Z,56.69
2022-09-15T13:35:47.870Z,56.94
2022-09-15T13:38:43.231Z,57.11
2022-09-15T13:41:28.955Z,56.85
2022-09-15T13:44:29.982Z,56.71
2022-09-15T13:47:05.666Z,56.46
2022-09-15T13:49:45.778Z,56.41
2022-09-15T13:52:23.001Z,56.63
2022-09-15T13:55:10.209Z,56.34
2022-09-15T14:00:31.732Z,56.73
2022-09-15T14:03:02.864Z,56.24
2022-09-15T14:05:32.525Z,55.59
2022-09-15T14:08:03.233Z,55.12
2022-09-15T14:10:33.274Z,54.64
2022-09-15T14:13:02.118Z,55.72
2022-09-15T14:15:30.716Z,55.95
2022-09-15T14:17:58.678Z,54.84
2022-09-15T14:20:31.289Z,54.85
2022-09-15T14:23:00.116Z,54.85
2022-09-15T14:25:29.793Z,54.02
2022-09-15T14:27:57.966Z,53.63
2022-09-15T14:30:27.158Z,53.81
2022-09-15T14:32:56.354Z,54.15
2022-09-15T14:35:25.676Z,53.84
2022-09-15T14:37:57.383Z,53.56
2022-09-15T14:40:26.971Z,53.19
2022-09-15T14:42:55.138Z,52.29
2022-09-15T14:48:16.798Z,52.50
2022-09-15T14:50:45.415Z,53.04
2022-09-15T14:53:18.753Z,51.81
2022-09-15T14:55:51.626Z,51.59
2022-09-15T14:58:23.910Z,53.04
2022-09-15T15:00:55.164Z,52.32
2022-09-15T15:03:27.781Z,52.78
2022-09-15T15:06:02.571Z,52.67
2022-09-15T15:08:36.397Z,52.79
2022-09-15T15:11:07.218Z,52.51
2022-09-15T15:13:37.302Z,52.28
2022-09-15T15:16:07.734Z,52.52
2022-09-15T15:18:39.994Z,51.85
2022-09-15T15:21:08.795Z,52.39
2022-09-15T15:23:46.834Z,52.11
2022-09-15T15:26:34.626Z,51.72
2022-09-15T15:29:02.686Z,52.06
2022-09-15T15:31:31.834Z,51.59
2022-09-15T15:34:05.528Z,51.14
2022-09-15T15:36:34.775Z,51.07
2022-09-15T15:39:05.779Z,50.70
2022-09-15T15:41:35.685Z,51.06
2022-09-15T15:44:08.258Z,50.87
2022-09-15T15:46:47.224Z,51.06
2022-09-15T15:49:15.298Z,51.05
2022-09-15T15:51:43.985Z,51.41
2022-09-15T15:54:13.506Z,51.05
2022-09-15T15:56:41.686Z,50.02
2022-09-15T15:59:10.977Z,50.78
2022-09-15T16:01:38.958Z,50.54
2022-09-15T16:04:07.569Z,50.40
2022-09-15T16:06:37.082Z,50.27
2022-09-15T16:09:06.283Z,50.63
2022-09-15T16:11:35.828Z,50.68
2022-09-15T16:14:04.036Z,50.55
2022-09-15T16:16:32.163Z,50.93
2022-09-15T16:19:00.310Z,50.58
2022-09-15T16:21:32.707Z,50.91
2022-09-15T16:24:01.180Z,50.88
2022-09-15T16:26:29.279Z,50.52
2022-09-15T16:28:59.334Z,50.96
2022-09-15T16:31:27.705Z,51.06
2022-09-15T16:33:56.553Z,51.40
2022-09-15T16:36:25.119Z,51.48
2022-09-15T16:38:54.287Z,51.64
2022-09-15T16:41:25.717Z,51.72
2022-09-15T16:43:55.973Z,51.89
2022-09-15T16:46:25.704Z,52.00
2022-09-15T16:48:53.944Z,52.11
2022-09-15T16:51:28.962Z,51.79
2022-09-15T16:53:59.373Z,52.26
2022-09-15T16:56:27.582Z,52.04
2022-09-15T16:59:00.137Z,52.01
2022-09-15T17:01:30.404Z,50.98
2022-09-15T17:03:58.725Z,52.02
2022-09-15T17:06:26.781Z,51.41
2022-09-15T17:08:55.749Z,51.16
2022-09-15T17:11:25.685Z,51.42
2022-09-15T17:13:53.829Z,51.51
2022-09-15T17:16:22.190Z,51.78
2022-09-15T17:18:51.708Z,51.73
2022-09-15T17:21:20.183Z,51.58
2022-09-15T17:23:49.419Z,51.88
2022-09-15T17:26:20.318Z,52.00
2022-09-15T17:28:48.947Z,51.94
2022-09-15T17:31:18.621Z,51.41
2022-09-15T17:33:47.897Z,51.74
2022-09-15T17:36:18.524Z,52.00
2022-09-15T17:38:49.102Z,51.75
2022-09-15T17:41:18.646Z,51.94
2022-09-15T17:43:46.866Z,52.21
2022-09-15T17:46:15.763Z,52.27
2022-09-15T17:48:43.930Z,52.23
2022-09-15T17:51:14.474Z,52.63
2022-09-15T17:53:45.275Z,52.58
2022-09-15T17:56:13.413Z,52.89
2022-09-15T17:58:41.781Z,52.91
2022-09-15T18:01:11.208Z,52.94
2022-09-15T18:03:39.566Z,52.94
2022-09-15T18:06:09.204Z,52.92
2022-09-15T18:11:43.085Z,53.04
2022-09-15T18:14:17.902Z,52.98
2022-09-15T18:16:47.542Z,53.22
2022-09-15T18:19:16.020Z,53.27
2022-09-15T18:21:45.721Z,53.30
2022-09-15T18:24:17.025Z,53.20
2022-09-15T18:26:46.836Z,53.35
2022-09-15T18:29:18.344Z,53.44
2022-09-15T18:31:49.148Z,53.51
2022-09-15T18:34:18.178Z,53.72
2022-09-15T18:36:47.632Z,53.80
2022-09-15T18:39:17.268Z,53.86
2022-09-15T18:41:46.324Z,53.72
2022-09-15T18:44:15.762Z,54.00
2022-09-15T18:46:46.495Z,54.02
2022-09-15T18:49:15.823Z,54.07
2022-09-15T18:51:51.717Z,54.22
2022-09-15T18:54:21.244Z,54.22
2022-09-15T18:56:50.383Z,54.39
2022-09-15T18:59:19.858Z,54.47
2022-09-15T19:01:51.420Z,54.35
2022-09-15T19:04:20.710Z,54.50
2022-09-15T19:06:49.753Z,54.66
2022-09-15T19:09:19.251Z,54.45
2022-09-15T19:11:48.856Z,54.57
2022-09-15T19:14:18.407Z,54.70
2022-09-15T19:16:57.625Z,54.76
2022-09-15T19:19:27.823Z,54.63
2022-09-15T19:22:03.193Z,54.59
2022-09-15T19:24:35.091Z,54.74
2022-09-15T19:30:17.422Z,55.13
2022-09-15T19:36:26.867Z,55.42
2022-09-15T19:38:55.593Z,55.52
2022-09-15T19:41:24.854Z,55.14
2022-09-15T19:43:54.348Z,55.32
2022-09-15T19:46:25.275Z,55.57
2022-09-15T19:48:56.198Z,55.63
2022-09-15T19:51:25.774Z,55.59
2022-09-15T19:53:58.055Z,55.68
2022-09-15T19:56:28.335Z,55.62
2022-09-15T19:58:58.347Z,55.54
2022-09-15T20:04:35.524Z,55.76
2022-09-15T20:07:05.279Z,55.89
2022-09-15T20:09:36.736Z,55.90
2022-09-15T20:12:05.950Z,55.92
2022-09-15T20:14:35.269Z,55.93
2022-09-15T20:17:03.867Z,56.19
2022-09-15T20:19:32.142Z,56.24
2022-09-15T20:22:00.188Z,56.18
2022-09-15T20:24:28.198Z,56.43
2022-09-15T20:26:59.076Z,56.31
2022-09-15T20:29:28.247Z,56.37
2022-09-15T20:31:57.480Z,56.40
2022-09-15T20:34:26.941Z,56.38
2022-09-15T20:36:56.025Z,55.94
2022-09-15T20:39:25.296Z,56.42
2022-09-15T20:41:54.898Z,56.37
2022-09-15T20:44:25.339Z,56.45
2022-09-15T20:46:53.501Z,56.22
2022-09-15T20:49:21.677Z,56.34
2022-09-15T20:51:52.092Z,56.42
2022-09-15T20:54:20.389Z,56.48
2022-09-15T20:56:48.545Z,56.53
2022-09-15T20:59:16.682Z,56.49
2022-09-15T21:01:46.607Z,56.47
2022-09-15T21:04:15.024Z,56.71
2022-09-15T21:06:43.058Z,56.86
2022-09-15T21:09:11.129Z,56.71
2022-09-15T21:11:39.333Z,56.69
2022-09-15T21:14:07.771Z,56.85
2022-09-15T21:16:36.266Z,56.61
2022-09-15T21:19:05.754Z,56.88
2022-09-15T21:21:34.553Z,56.63
2022-09-15T21:24:04.388Z,56.63
2022-09-15T21:26:33.965Z,56.85
2022-09-15T21:29:02.461Z,57.09
2022-09-15T21:31:32.333Z,57.25
2022-09-15T21:34:01.351Z,57.23
2022-09-15T21:36:31.653Z,56.94
2022-09-15T21:39:02.928Z,57.18
2022-09-15T21:41:31.274Z,57.64
2022-09-15T21:43:59.479Z,57.62
2022-09-15T21:46:29.245Z,57.74
2022-09-15T21:48:58.455Z,58.14
2022-09-15T21:51:28.431Z,57.75
2022-09-15T21:53:59.379Z,57.86
2022-09-15T21:56:29.290Z,57.75
2022-09-15T21:58:57.305Z,58.07
2022-09-15T22:01:26.145Z,58.11
2022-09-15T22:03:54.818Z,58.01
2022-09-15T22:06:27.688Z,58.07
2022-09-15T22:08:55.950Z,57.92
2022-09-15T22:11:25.949Z,58.07
2022-09-15T22:13:54.069Z,58.02
2022-09-15T22:16:23.081Z,57.93
2022-09-15T22:18:51.766Z,58.01
2022-09-15T22:21:21.124Z,58.27
2022-09-15T22:23:50.115Z,57.91
2022-09-15T22:26:19.172Z,58.07
2022-09-15T22:28:48.950Z,58.13
2022-09-15T22:31:17.815Z,58.37
2022-09-15T22:33:45.968Z,58.34
2022-09-15T22:36:14.798Z,58.45
2022-09-15T22:38:43.492Z,58.54
2022-09-15T22:41:13.294Z,58.27
2022-09-15T22:43:41.822Z,58.43
2022-09-15T22:46:12.033Z,58.46
2022-09-15T22:48:43.456Z,57.95
2022-09-15T22:51:12.114Z,58.10
2022-09-15T22:53:40.199Z,58.41
2022-09-15T22:56:09.717Z,58.36
2022-09-15T22:58:38.843Z,58.46
2022-09-15T23:01:07.378Z,58.46
2022-09-15T23:03:37.086Z,58.11
2022-09-15T23:06:05.838Z,58.13
2022-09-15T23:08:34.437Z,57.92
2022-09-15T23:11:03.131Z,58.24
2022-09-15T23:13:31.202Z,58.29
2022-09-15T23:15:59.291Z,58.39
2022-09-15T23:18:28.210Z,58.29
2022-09-15T23:21:01.801Z,58.26
2022-09-15T23:23:30.334Z,58.45
2022-09-15T23:25:58.443Z,58.44
2022-09-15T23:28:26.597Z,58.50
2022-09-15T23:30:54.960Z,58.72
2022-09-15T23:33:23.811Z,58.34
2022-09-15T23:35:52.335Z,58.15
2022-09-15T23:38:22.082Z,58.01
2022-09-15T23:40:50.705Z,58.24
2022-09-15T23:43:19.069Z,58.44
2022-09-15T23:45:47.289Z,58.55
2022-09-15T23:48:15.663Z,58.47
2022-09-15T23:50:44.595Z,58.67
2022-09-15T23:53:12.886Z,58.44
2022-09-15T23:55:42.820Z,58.65
2022-09-15T23:58:11.582Z,58.64
